Time,TemperatureF,DewpointF,PressureIn,WindDirection,WindDirectionDegrees,WindSpeedMPH,WindSpeedGustMPH,Humidity,HourlyPrecipIn,Conditions,Clouds,dailyrainin,SoftwareType,DateUTC
2013-08-08 00:00:00,71.8,63.4,29.81,SSW,193,2.0,8.0,75,0.00,,,0.02,Wunderground v.1.13,2013-08-08 04:00:00,
2013-08-08 00:30:00,71.6,63.6,29.80,SSW,200,2.0,8.0,76,0.00,,,0.02,Wunderground v.1.13,2013-08-08 04:30:00,
2013-08-08 01:00:00,71.1,63.5,29.80,SSW,207,2.0,2.0,77,0.00,,,0.00,Wunderground v.1.13,2013-08-08 05:00:00,
2013-08-08 01:30:00,70.6,65.2,29.80,SSW,207,0.0,8.0,83,0.00,,,0.00,Wunderground v.1.13,2013-08-08 05:30:00,
2013-08-08 02:00:00,69.9,65.2,29.80,SSW,207,1.0,1.0,85,0.00,,,0.00,Wunderground v.1.13,2013-08-08 06:00:00,
2013-08-08 02:30:00,70.8,66.1,29.80,SSW,207,1.0,1.0,85,0.00,,,0.00,Wunderground v.1.13,2013-08-08 06:30:00,
2013-08-08 03:00:00,72.1,65.6,29.80,SSW,198,3.0,3.0,80,0.00,,,0.00,Wunderground v.1.13,2013-08-08 07:00:00,
2013-08-08 03:30:00,72.3,65.4,29.80,SSW,194,3.0,3.0,79,0.00,,,0.00,Wunderground v.1.13,2013-08-08 07:30:00,
2013-08-08 04:00:00,72.1,65.9,29.79,SSW,197,1.0,1.0,81,0.00,,,0.00,Wunderground v.1.13,2013-08-08 08:00:00,
2013-08-08 04:30:00,71.8,66.0,29.80,SSW,197,1.0,1.0,82,0.00,,,0.00,Wunderground v.1.13,2013-08-08 08:30:00,
2013-08-08 05:00:00,70.9,65.5,29.81,WSW,251,4.0,8.0,83,0.00,,,0.00,Wunderground v.1.13,2013-08-08 09:00:00,
2013-08-08 05:30:00,69.8,65.4,29.82,SW,223,3.0,3.0,86,0.00,,,0.00,Wunderground v.1.13,2013-08-08 09:30:00,
2013-08-08 06:00:00,69.3,65.9,29.83,SW,232,3.0,8.0,89,0.00,,,0.00,Wunderground v.1.13,2013-08-08 10:00:00,
2013-08-08 06:30:00,68.8,65.7,29.84,WSW,250,2.0,8.0,90,0.00,,,0.00,Wunderground v.1.13,2013-08-08 10:30:00,
2013-08-08 07:00:00,68.8,66.1,29.84,SW,232,2.0,8.0,91,0.00,,,0.00,Wunderground v.1.13,2013-08-08 11:00:00,
2013-08-08 07:30:00,69.6,66.9,29.86,SSW,207,2.0,8.0,91,0.00,,,0.00,Wunderground v.1.13,2013-08-08 11:30:00,
2013-08-08 08:00:00,71.5,67.4,29.86,SW,226,3.0,3.0,87,0.00,,,0.00,Wunderground v.1.13,2013-08-08 12:00:00,
2013-08-08 08:30:00,72.8,67.7,29.87,West,262,4.0,8.0,84,0.00,,,0.00,Wunderground v.1.13,2013-08-08 12:30:00,
2013-08-08 09:00:00,73.3,67.8,29.88,SW,236,3.0,8.0,83,0.00,,,0.00,Wunderground v.1.13,2013-08-08 13:00:00,
2013-08-08 09:30:00,74.7,67.0,29.88,SSW,196,4.0,8.0,77,0.00,,,0.00,Wunderground v.1.13,2013-08-08 13:30:00,
2013-08-08 10:00:00,76.5,66.0,29.88,WSW,257,2.0,2.0,70,0.00,,,0.00,Wunderground v.1.13,2013-08-08 14:00:00,
2013-08-08 10:30:00,77.0,63.4,29.87,SW,229,2.0,8.0,63,0.00,,,0.00,Wunderground v.1.13,2013-08-08 14:30:00,
2013-08-08 11:00:00,78.6,64.0,29.86,WNW,289,2.0,8.0,61,0.00,,,0.00,Wunderground v.1.13,2013-08-08 15:00:00,
2013-08-08 11:30:00,79.6,63.5,29.86,NW,322,1.0,8.0,58,0.00,,,0.00,Wunderground v.1.13,2013-08-08 15:30:00,
2013-08-08 12:00:00,79.2,64.6,29.86,NNE,32,2.0,8.0,61,0.00,,,0.00,Wunderground v.1.13,2013-08-08 16:00:00,
2013-08-08 12:30:00,79.8,65.2,29.86,NNE,28,1.0,1.0,61,0.00,,,0.00,Wunderground v.1.13,2013-08-08 16:30:00,
2013-08-08 13:00:00,80.1,65.0,29.86,North,5,3.0,8.0,60,0.00,,,0.00,Wunderground v.1.13,2013-08-08 17:00:00,
2013-08-08 13:30:00,81.4,66.2,29.86,North,360,2.0,8.0,60,0.00,,,0.00,Wunderground v.1.13,2013-08-08 17:30:00,
2013-08-08 14:00:00,81.8,64.1,29.86,NNW,333,1.0,8.0,55,0.00,,,0.00,Wunderground v.1.13,2013-08-08 18:00:00,
2013-08-08 14:30:00,83.4,65.0,29.86,NNW,337,2.0,8.0,54,0.00,,,0.00,Wunderground v.1.13,2013-08-08 18:30:00,
2013-08-08 15:00:00,82.0,63.2,29.86,NW,325,2.0,2.0,53,0.00,,,0.00,Wunderground v.1.13,2013-08-08 19:00:00,
2013-08-08 15:30:00,82.2,64.9,29.85,NNW,327,1.0,1.0,56,0.00,,,0.00,Wunderground v.1.13,2013-08-08 19:30:00,
2013-08-08 16:00:00,81.1,64.4,29.85,NNW,329,0.0,8.0,57,0.00,,,0.00,Wunderground v.1.13,2013-08-08 20:00:00,
2013-08-08 16:30:00,79.6,67.7,29.84,SSW,209,1.0,8.0,67,0.00,,,0.00,Wunderground v.1.13,2013-08-08 20:30:00,
2013-08-08 17:00:00,78.1,67.1,29.85,SSW,212,3.0,8.0,69,0.00,,,0.00,Wunderground v.1.13,2013-08-08 21:00:00,
2013-08-08 18:00:00,80.5,67.2,29.84,SSW,211,0.0,8.0,64,0.00,,,0.00,Wunderground v.1.13,2013-08-08 22:00:00,
2013-08-08 18:30:00,81.4,67.6,29.84,SSW,211,0.0,8.0,63,0.00,,,0.00,Wunderground v.1.13,2013-08-08 22:30:00,
2013-08-08 19:00:00,79.6,67.7,29.84,SSW,211,0.0,8.0,67,0.00,,,0.00,Wunderground v.1.13,2013-08-08 23:00:00,
2013-08-08 19:30:00,78.5,69.1,29.84,SSW,211,0.0,8.0,73,0.00,,,0.00,Wunderground v.1.13,2013-08-08 23:30:00,
2013-08-08 20:00:00,76.8,70.2,29.84,SSW,211,0.0,8.0,80,0.00,,,0.00,Wunderground v.1.13,2013-08-09 00:00:00,
2013-08-08 20:30:00,76.3,69.3,29.84,SSW,211,0.0,8.0,79,0.00,,,0.00,Wunderground v.1.13,2013-08-09 00:30:00,
2013-08-08 21:30:00,73.5,68.0,29.86,SSW,211,0.0,8.0,83,0.00,,,0.00,Wunderground v.1.13,2013-08-09 01:30:00,
2013-08-08 22:30:00,71.6,68.2,29.84,SSW,211,0.0,8.0,89,0.00,,,0.00,Wunderground v.1.13,2013-08-09 02:30:00,
2013-08-08 23:00:00,70.9,68.5,29.83,SSW,211,0.0,8.0,92,0.00,,,0.00,Wunderground v.1.13,2013-08-09 03:00:00,